Portada
METAR-TAF:

METAR-TAF

Aeropuertos :

Aeropuerto de Majachkalá-Uytash

Majachkalá, Rusia

latitud: 42-49-01N, longitud: 047-39-08E, altitud: 4 m

Observación

El informe se hizo hace 13 minutos, a las 15:30 UTC
Viento 8 kt del sur-sureste
Temperatura 11°C
Humedad 71%
Presión 1012 hPa
Visibilidad 10 km o más

METAR: URML 011530Z 16004MPS 9999 NSC 11/06 Q1012 R14/01//70 NOSIG RMK QFE759/1012

Hora: 18:43 (15:43 UTC)

Pronóstico

El informe se hizo hace 1 hora y 43 minutos, a las 14:00 UTC
Pronóstico válido del 01 a las 15 UTC al 01 a las 24 UTC
Viento 12 kt del sureste con ráfagas de 23 kt
Visibilidad: 6000 m
Nubes dispersas a una altura de 3000 ft
Temporalmente
del 01 a las 15 UTC al 01 a las 21 UTC
Visibilidad: 3100 m
Cielo nuboso a una altura de 1600 ft
neblina

TAF: URML 011400Z 0115/0124 14006G12MPS 6000 SCT030 TEMPO 0115/0121 3100 BR BKN016

Observaciones y pronósticos meteorológicos de más de 4000 aeropuertos (mensajes METAR y TAF).

Los puntos amarillos y rojos representan las estaciones disponibles.

Ponga el ratón en el punto deseado para ver el nombre de la estación.

Haga clic para ver las observaciones y los pronósticos meteorológicos.

Para cambiar el mapa : haga clic en los botones verdes con una cruz de color negro para hacer un zoom, en el botón verde con un guión para alejar o en las flechas verdes para mapas adyacentes.


METAR-TAF: